Time;durP1;ratioP1;P1;durP2;ratioP2;P2;SDS_P1;SDS_P2;PMS_P1;PMS_P2;Temp;Humidity;BMP_temperature;BMP_pressure;BME280_temperature;BME280_humidity;BME280_pressure;Samples;Min_cycle;Max_cycle;Signal;HPM_P1;HPM_P2
2021/04/13 00:02:27;;;;;;;7.57;4.93;;;2.70;99.90;;;;;;5096632;28;20785;-84
2021/04/13 00:04:58;;;;;;;10.27;4.73;;;2.70;99.90;;;;;;5089217;28;21003;-83
2021/04/13 00:07:26;;;;;;;6.80;4.47;;;2.70;99.90;;;;;;5097983;28;20223;-80
2021/04/13 00:09:54;;;;;;;6.80;4.03;;;2.60;99.90;;;;;;5099061;28;20218;-83
2021/04/13 00:12:24;;;;;;;10.53;4.33;;;2.70;99.90;;;;;;5098935;28;20270;-80
2021/04/13 00:14:52;;;;;;;11.53;4.87;;;2.60;99.90;;;;;;5099234;28;20272;-79
2021/04/13 00:17:21;;;;;;;8.97;4.47;;;2.60;99.90;;;;;;5099238;28;20340;-82
2021/04/13 00:19:52;;;;;;;9.30;5.03;;;2.60;99.90;;;;;;5099199;28;20257;-79
2021/04/13 00:22:19;;;;;;;14.10;5.57;;;2.70;99.90;;;;;;5098942;28;20360;-78
2021/04/13 00:24:46;;;;;;;9.83;4.30;;;2.60;99.90;;;;;;5100655;28;20591;-80
2021/04/13 00:27:15;;;;;;;8.33;4.47;;;2.60;99.90;;;;;;5097011;28;20229;-80
2021/04/13 00:29:41;;;;;;;7.70;3.83;;;2.60;99.90;;;;;;5098316;28;20218;-85
2021/04/13 00:32:11;;;;;;;8.07;4.37;;;2.60;99.90;;;;;;5098766;28;20192;-80
2021/04/13 00:34:45;;;;;;;6.57;4.40;;;2.60;99.90;;;;;;5099079;28;20229;-86
2021/04/13 00:37:24;;;;;;;6.97;4.30;;;2.70;99.90;;;;;;5097400;28;20188;-82
2021/04/13 00:39:52;;;;;;;7.37;4.43;;;2.60;99.90;;;;;;5098457;28;20704;-83
2021/04/13 00:42:26;;;;;;;8.03;4.13;;;2.70;99.90;;;;;;5098544;28;20649;-80
2021/04/13 00:44:56;;;;;;;8.60;4.10;;;2.70;99.90;;;;;;5097053;28;20219;-80
2021/04/13 00:47:26;;;;;;;7.40;3.93;;;2.70;99.90;;;;;;5098325;28;20191;-80
2021/04/13 00:49:57;;;;;;;6.57;4.03;;;2.60;99.90;;;;;;5098871;28;20226;-84
2021/04/13 00:52:37;;;;;;;9.17;4.27;;;2.60;99.90;;;;;;5095825;28;20198;-81
2021/04/13 00:55:08;;;;;;;7.93;4.47;;;2.60;99.90;;;;;;5098772;28;20195;-83
2021/04/13 00:57:39;;;;;;;7.37;4.40;;;2.60;99.90;;;;;;5097239;28;20196;-84
2021/04/13 01:00:09;;;;;;;9.60;4.07;;;2.60;99.90;;;;;;5095679;28;20658;-83
2021/04/13 01:02:37;;;;;;;7.03;3.90;;;2.60;99.90;;;;;;5097501;28;20846;-80
2021/04/13 01:05:12;;;;;;;6.07;3.73;;;2.60;99.90;;;;;;5098862;28;20531;-83
2021/04/13 01:07:43;;;;;;;6.60;4.23;;;2.60;99.90;;;;;;5097933;28;20192;-80
2021/04/13 01:10:15;;;;;;;7.40;4.20;;;2.60;99.90;;;;;;5092404;28;20250;-80
2021/04/13 01:12:47;;;;;;;10.37;4.60;;;2.50;99.90;;;;;;5095327;28;20196;-84
2021/04/13 01:15:16;;;;;;;6.97;3.97;;;2.50;99.90;;;;;;5094803;28;20212;-80
2021/04/13 01:17:44;;;;;;;6.30;3.73;;;2.50;99.90;;;;;;5095910;28;20197;-80
2021/04/13 01:20:32;;;;;;;7.30;4.17;;;2.60;99.90;;;;;;5095114;28;20219;-80
2021/04/13 01:23:04;;;;;;;7.50;4.20;;;2.60;99.90;;;;;;5093903;28;20308;-80
2021/04/13 01:25:33;;;;;;;6.43;3.73;;;2.60;99.90;;;;;;5093112;28;20200;-78
2021/04/13 01:28:08;;;;;;;8.00;3.63;;;2.60;99.90;;;;;;5093925;28;20910;-86
2021/04/13 01:30:39;;;;;;;8.63;4.30;;;2.50;99.90;;;;;;5095298;28;20607;-79
2021/04/13 01:33:17;;;;;;;5.50;3.60;;;2.50;99.90;;;;;;5095564;28;20204;-81
2021/04/13 01:35:48;;;;;;;5.77;3.83;;;2.50;99.90;;;;;;5095190;28;20290;-85
2021/04/13 01:38:22;;;;;;;9.40;3.40;;;2.50;99.90;;;;;;5094485;28;20316;-79
2021/04/13 01:41:03;;;;;;;9.07;4.07;;;2.60;99.90;;;;;;5095267;28;20672;-85
2021/04/13 01:43:32;;;;;;;9.27;3.70;;;2.60;99.90;;;;;;5093511;28;20206;-82
2021/04/13 01:46:00;;;;;;;7.57;4.20;;;2.60;99.90;;;;;;5094472;28;20616;-80
2021/04/13 01:48:28;;;;;;;9.23;3.90;;;2.60;99.90;;;;;;5094125;28;20241;-83
2021/04/13 01:50:57;;;;;;;7.33;3.87;;;2.50;99.90;;;;;;5095771;28;20214;-80
2021/04/13 01:53:25;;;;;;;13.57;4.03;;;2.50;99.90;;;;;;5094667;28;20361;-78
2021/04/13 01:55:54;;;;;;;7.60;4.10;;;2.60;99.90;;;;;;5096117;28;20226;-84
2021/04/13 01:58:25;;;;;;;9.20;3.97;;;2.50;99.90;;;;;;5095691;28;20286;-79
2021/04/13 02:01:00;;;;;;;9.43;4.40;;;2.40;99.90;;;;;;5094125;28;20330;-80
2021/04/13 02:03:36;;;;;;;7.73;4.07;;;2.40;99.90;;;;;;5094447;28;20207;-83
2021/04/13 02:06:09;;;;;;;8.97;4.30;;;2.40;99.90;;;;;;5094148;28;20191;-80
2021/04/13 02:08:41;;;;;;;8.97;4.17;;;2.30;99.90;;;;;;5094233;28;20203;-79
2021/04/13 02:11:11;;;;;;;9.13;4.40;;;2.40;99.90;;;;;;5091991;28;20230;-79
2021/04/13 02:13:43;;;;;;;10.30;4.37;;;2.40;99.90;;;;;;5095137;28;20197;-83
2021/04/13 02:16:15;;;;;;;7.43;4.10;;;2.40;99.90;;;;;;5082928;28;20201;-79
2021/04/13 02:18:45;;;;;;;9.07;4.97;;;2.40;99.90;;;;;;5094796;28;20324;-80
2021/04/13 02:21:14;;;;;;;8.73;4.43;;;2.40;99.90;;;;;;5094770;28;20227;-86
2021/04/13 02:23:47;;;;;;;7.60;4.13;;;2.40;99.90;;;;;;5095108;28;20307;-83
2021/04/13 02:26:14;;;;;;;9.10;4.73;;;2.40;99.90;;;;;;5095476;28;20192;-82
2021/04/13 02:28:42;;;;;;;7.97;4.33;;;2.40;99.90;;;;;;5094200;28;20631;-84
2021/04/13 02:31:12;;;;;;;7.40;4.27;;;2.30;99.90;;;;;;5094460;28;20283;-82
2021/04/13 02:33:42;;;;;;;9.07;5.00;;;2.30;99.90;;;;;;5094874;28;20204;-82
2021/04/13 02:36:16;;;;;;;10.60;5.50;;;2.30;99.90;;;;;;5094463;28;20197;-79
2021/04/13 02:38:48;;;;;;;8.10;4.97;;;2.30;99.90;;;;;;5094424;28;20196;-80
2021/04/13 02:41:21;;;;;;;8.57;4.80;;;2.30;99.90;;;;;;5085689;28;20220;-79
2021/04/13 02:43:51;;;;;;;10.17;5.07;;;2.30;99.90;;;;;;5094027;28;20192;-85
2021/04/13 02:46:21;;;;;;;13.87;5.33;;;2.30;99.90;;;;;;5094116;28;20223;-83
2021/04/13 02:48:53;;;;;;;7.17;4.83;;;2.30;99.90;;;;;;5094742;28;20199;-81
2021/04/13 02:51:22;;;;;;;8.43;5.30;;;2.30;99.90;;;;;;5093504;28;20282;-79
2021/04/13 02:53:53;;;;;;;13.10;5.83;;;2.30;99.90;;;;;;5093846;28;20274;-79
2021/04/13 02:56:23;;;;;;;13.23;6.00;;;2.30;99.90;;;;;;5093456;28;20192;-80
2021/04/13 02:58:58;;;;;;;10.90;5.93;;;2.30;99.90;;;;;;5093926;28;20357;-79
2021/04/13 03:01:25;;;;;;;11.80;6.10;;;2.30;99.90;;;;;;5093754;28;20207;-79
2021/04/13 03:03:53;;;;;;;13.20;5.70;;;2.30;99.90;;;;;;5094095;28;20291;-83
2021/04/13 03:06:21;;;;;;;12.43;5.50;;;2.20;99.90;;;;;;5093866;28;20594;-82
2021/04/13 03:08:48;;;;;;;10.53;5.47;;;2.20;99.90;;;;;;5093936;28;20286;-86
2021/04/13 03:11:19;;;;;;;11.27;5.83;;;2.30;99.90;;;;;;5093695;28;20207;-85
2021/04/13 03:13:48;;;;;;;10.10;6.20;;;2.30;99.90;;;;;;5093942;28;20218;-80
2021/04/13 03:16:19;;;;;;;12.43;6.13;;;2.20;99.90;;;;;;5093074;28;20191;-82
2021/04/13 03:18:50;;;;;;;13.90;6.53;;;2.20;99.90;;;;;;5093772;28;20645;-79
2021/04/13 03:21:26;;;;;;;12.77;7.30;;;2.10;99.90;;;;;;5093601;28;20219;-81
2021/04/13 03:23:55;;;;;;;14.60;8.03;;;2.10;99.90;;;;;;5093977;28;20204;-85
2021/04/13 03:26:26;;;;;;;18.40;8.07;;;2.10;99.90;;;;;;5093053;28;20662;-79
2021/04/13 03:28:55;;;;;;;19.53;8.20;;;2.10;99.90;;;;;;5093221;28;20543;-82
2021/04/13 03:31:23;;;;;;;16.00;8.10;;;2.10;99.90;;;;;;5092706;28;20245;-84
2021/04/13 03:33:51;;;;;;;16.17;8.57;;;2.00;99.90;;;;;;5093389;28;20298;-83
2021/04/13 03:36:21;;;;;;;15.60;8.10;;;2.00;99.90;;;;;;5093009;28;20192;-83
2021/04/13 03:38:53;;;;;;;15.10;8.27;;;2.00;99.90;;;;;;5093438;28;20210;-86
2021/04/13 03:41:21;;;;;;;21.50;8.50;;;2.00;99.90;;;;;;5092727;28;20226;-79
2021/04/13 03:43:54;;;;;;;13.07;7.97;;;2.00;99.90;;;;;;5093322;28;20286;-81
2021/04/13 03:46:21;;;;;;;13.67;8.60;;;2.00;99.90;;;;;;5092732;28;20207;-80
2021/04/13 03:48:49;;;;;;;15.70;8.70;;;2.00;99.90;;;;;;5093001;28;20200;-79
2021/04/13 03:51:24;;;;;;;14.37;9.07;;;2.00;99.90;;;;;;5092865;28;20736;-82
2021/04/13 03:53:53;;;;;;;14.63;8.13;;;1.90;99.90;;;;;;5093390;28;20211;-80
2021/04/13 03:56:21;;;;;;;17.73;9.13;;;1.90;99.90;;;;;;5093070;28;20200;-82
2021/04/13 03:58:50;;;;;;;17.47;9.03;;;1.90;99.90;;;;;;5093702;28;20204;-79
2021/04/13 04:01:20;;;;;;;22.90;9.17;;;2.00;99.90;;;;;;5091759;28;20218;-79
2021/04/13 04:03:52;;;;;;;15.73;9.03;;;2.00;99.90;;;;;;5090795;28;20195;-87
2021/04/13 04:06:37;;;;;;;23.47;10.30;;;1.90;99.90;;;;;;5091698;28;20199;-81
2021/04/13 04:09:14;;;;;;;16.57;9.33;;;2.00;99.90;;;;;;5090526;28;20198;-81
2021/04/13 04:11:40;;;;;;;16.47;9.87;;;1.90;99.90;;;;;;5091449;28;20226;-78
2021/04/13 04:14:14;;;;;;;18.97;10.40;;;1.80;99.90;;;;;;5091152;28;20291;-80
2021/04/13 04:16:40;;;;;;;23.27;11.20;;;1.80;99.90;;;;;;5093223;28;20199;-80
2021/04/13 04:19:19;;;;;;;22.23;11.00;;;1.80;99.90;;;;;;5093008;28;20238;-80
2021/04/13 04:21:48;;;;;;;20.37;11.43;;;1.70;99.90;;;;;;5092724;28;20268;-80
2021/04/13 04:24:26;;;;;;;20.70;10.63;;;1.80;99.90;;;;;;5092322;28;20224;-79
2021/04/13 04:26:56;;;;;;;25.53;10.63;;;1.80;99.90;;;;;;5093218;28;20282;-80
2021/04/13 04:29:37;;;;;;;24.33;12.50;;;1.80;99.90;;;;;;5091579;28;20526;-81
2021/04/13 04:32:18;;;;;;;21.80;11.77;;;1.80;99.90;;;;;;5092969;28;20199;-79
2021/04/13 04:34:54;;;;;;;21.93;11.50;;;1.80;99.90;;;;;;5092610;28;20292;-81
2021/04/13 04:37:36;;;;;;;20.83;10.97;;;1.80;99.90;;;;;;5093249;28;20256;-79
2021/04/13 04:40:20;;;;;;;23.43;11.80;;;1.70;99.90;;;;;;5093320;28;20294;-79
2021/04/13 04:42:50;;;;;;;22.87;12.00;;;1.80;99.90;;;;;;5091834;28;20223;-84
2021/04/13 04:45:19;;;;;;;29.03;12.30;;;1.80;99.90;;;;;;5095473;28;20669;-85
2021/04/13 04:47:47;;;;;;;23.83;12.37;;;1.80;99.90;;;;;;5096457;28;20572;-84
2021/04/13 04:50:16;;;;;;;28.53;12.73;;;1.80;99.90;;;;;;5096021;28;20288;-79
2021/04/13 04:52:42;;;;;;;23.97;13.20;;;1.80;99.90;;;;;;5096257;28;20200;-83
2021/04/13 04:55:10;;;;;;;24.63;12.50;;;1.70;99.90;;;;;;5095792;28;20393;-81
2021/04/13 04:57:37;;;;;;;27.60;13.50;;;1.80;99.90;;;;;;5094887;28;20207;-78
2021/04/13 05:00:05;;;;;;;29.50;13.83;;;1.80;99.90;;;;;;5094474;28;20286;-78
2021/04/13 05:02:33;;;;;;;23.80;13.33;;;1.90;99.90;;;;;;5095846;28;20314;-80
2021/04/13 05:04:59;;;;;;;26.90;12.90;;;2.00;99.90;;;;;;5095962;28;20296;-79
2021/04/13 05:07:26;;;;;;;31.83;14.43;;;2.00;99.90;;;;;;5095542;28;20720;-80
2021/04/13 05:09:52;;;;;;;27.40;13.47;;;2.10;99.90;;;;;;5095108;28;20242;-81
2021/04/13 05:12:18;;;;;;;28.30;13.93;;;2.30;99.90;;;;;;5095319;28;20195;-81
2021/04/13 05:14:46;;;;;;;27.40;14.43;;;2.40;99.90;;;;;;5095774;28;20237;-79
2021/04/13 05:17:12;;;;;;;25.30;13.20;;;2.60;99.90;;;;;;5095452;28;20220;-80
2021/04/13 05:19:39;;;;;;;24.60;13.80;;;2.60;99.90;;;;;;5095840;28;20214;-81
2021/04/13 05:22:05;;;;;;;22.03;13.53;;;2.60;99.90;;;;;;5095050;28;20219;-84
2021/04/13 05:24:31;;;;;;;24.47;13.20;;;2.70;99.90;;;;;;5095530;28;20390;-86
2021/04/13 05:26:58;;;;;;;24.23;13.00;;;2.70;99.90;;;;;;5095174;28;20252;-79
2021/04/13 05:29:24;;;;;;;24.07;12.50;;;2.70;99.90;;;;;;5094971;28;20373;-81
2021/04/13 05:31:51;;;;;;;25.53;13.40;;;2.80;99.90;;;;;;5095871;28;20201;-78
2021/04/13 05:34:18;;;;;;;26.30;14.50;;;2.80;99.90;;;;;;5087835;28;20283;-79
2021/04/13 05:36:45;;;;;;;22.20;13.37;;;2.90;99.90;;;;;;5088488;28;20200;-79
2021/04/13 05:39:13;;;;;;;29.80;13.57;;;2.90;99.90;;;;;;5095104;28;20204;-80
2021/04/13 05:41:40;;;;;;;26.50;14.40;;;3.00;99.90;;;;;;5094550;28;20218;-79
2021/04/13 05:44:07;;;;;;;30.73;14.13;;;3.10;99.90;;;;;;5095008;28;20208;-79
2021/04/13 05:46:34;;;;;;;26.77;13.90;;;3.10;99.90;;;;;;5094630;28;20298;-81
2021/04/13 05:49:01;;;;;;;26.70;13.20;;;3.20;99.90;;;;;;5094599;28;20286;-79
2021/04/13 05:51:29;;;;;;;31.80;14.77;;;3.30;99.90;;;;;;5094884;28;20299;-83
2021/04/13 05:53:56;;;;;;;28.57;15.03;;;3.30;99.90;;;;;;5094298;28;20223;-81
2021/04/13 05:56:27;;;;;;;26.67;13.87;;;3.40;99.90;;;;;;5094319;28;20211;-79
2021/04/13 05:58:55;;;;;;;34.17;14.80;;;3.40;99.90;;;;;;5091507;28;20254;-82
2021/04/13 06:01:24;;;;;;;28.27;14.33;;;3.50;99.90;;;;;;5094547;28;20204;-78
2021/04/13 06:03:51;;;;;;;26.70;13.53;;;3.60;99.90;;;;;;5094324;28;20283;-79
2021/04/13 06:06:18;;;;;;;23.07;13.40;;;3.60;99.90;;;;;;5094218;28;20224;-84
2021/04/13 06:08:45;;;;;;;27.20;13.33;;;3.60;99.90;;;;;;5093949;28;20244;-84
2021/04/13 06:11:15;;;;;;;29.10;12.63;;;3.70;99.90;;;;;;5094569;28;20311;-79
2021/04/13 06:13:43;;;;;;;33.47;13.67;;;3.80;99.90;;;;;;5094058;28;20196;-79
2021/04/13 06:16:11;;;;;;;26.80;12.97;;;3.80;99.90;;;;;;5094311;28;20239;-79
2021/04/13 06:18:37;;;;;;;23.53;12.77;;;3.90;99.90;;;;;;5093969;28;20227;-79
2021/04/13 06:21:04;;;;;;;30.10;12.97;;;4.10;99.90;;;;;;5093505;28;20253;-80
2021/04/13 06:23:31;;;;;;;25.57;12.40;;;4.10;99.90;;;;;;5093857;28;20219;-82
2021/04/13 06:25:58;;;;;;;28.63;12.47;;;4.20;99.90;;;;;;5094513;28;20191;-84
2021/04/13 06:28:26;;;;;;;24.33;12.00;;;4.20;99.90;;;;;;5093714;28;20194;-79
2021/04/13 06:30:52;;;;;;;22.47;12.10;;;4.30;99.90;;;;;;5094030;28;20569;-80
2021/04/13 06:33:19;;;;;;;24.40;11.57;;;4.40;99.90;;;;;;5094353;28;20214;-83
2021/04/13 06:35:46;;;;;;;27.40;12.00;;;4.40;99.90;;;;;;5093493;28;20192;-79
2021/04/13 06:38:17;;;;;;;27.87;11.50;;;4.50;99.90;;;;;;5093577;28;20565;-83
2021/04/13 06:40:58;;;;;;;24.07;11.17;;;4.60;99.90;;;;;;5093827;28;20284;-81
2021/04/13 06:43:43;;;;;;;21.03;11.03;;;4.70;99.90;;;;;;5093667;28;20258;-85
2021/04/13 06:46:16;;;;;;;23.03;10.13;;;4.90;99.90;;;;;;5093472;28;20745;-80
2021/04/13 06:48:54;;;;;;;23.13;11.23;;;5.00;99.90;;;;;;5093306;28;20642;-80
2021/04/13 06:51:26;;;;;;;26.47;11.50;;;5.10;99.90;;;;;;5093373;28;20277;-81
2021/04/13 06:54:11;;;;;;;18.53;10.57;;;5.30;99.90;;;;;;5094227;28;20211;-83
2021/04/13 06:56:51;;;;;;;24.70;10.50;;;5.30;99.90;;;;;;5093519;28;20291;-81
2021/04/13 06:59:32;;;;;;;20.03;9.43;;;5.40;99.90;;;;;;5094367;28;20332;-81
2021/04/13 07:02:00;;;;;;;19.70;8.53;;;5.50;99.90;;;;;;5093254;28;20257;-84
2021/04/13 07:04:38;;;;;;;22.50;9.40;;;5.60;99.90;;;;;;5093693;28;20211;-84
2021/04/13 07:07:09;;;;;;;25.17;9.43;;;5.60;99.90;;;;;;5091474;28;20657;-82
2021/04/13 07:09:39;;;;;;;21.20;10.10;;;5.70;99.90;;;;;;5093394;28;20231;-82
2021/04/13 07:12:14;;;;;;;21.17;10.43;;;5.70;99.90;;;;;;5092220;28;20196;-83
2021/04/13 07:14:50;;;;;;;23.03;11.17;;;5.80;99.90;;;;;;5093688;28;20234;-82
2021/04/13 07:17:25;;;;;;;25.67;10.87;;;6.00;99.90;;;;;;5084028;28;20191;-84
2021/04/13 07:19:57;;;;;;;22.13;10.33;;;6.00;99.90;;;;;;5086549;28;20215;-84
2021/04/13 07:22:29;;;;;;;22.17;10.80;;;6.00;99.90;;;;;;5086614;28;20235;-82
2021/04/13 07:24:59;;;;;;;25.20;10.83;;;6.10;99.90;;;;;;5092636;28;20283;-82
2021/04/13 07:27:34;;;;;;;22.30;9.50;;;6.30;99.90;;;;;;5094095;28;20676;-82
2021/04/13 07:30:06;;;;;;;23.70;9.47;;;6.40;99.90;;;;;;5095637;28;20268;-82
2021/04/13 07:32:36;;;;;;;20.17;9.23;;;6.30;99.90;;;;;;5096974;28;20200;-81
2021/04/13 07:35:03;;;;;;;19.80;8.50;;;6.40;99.90;;;;;;5096776;28;20208;-81
2021/04/13 07:37:33;;;;;;;19.07;9.30;;;6.40;99.90;;;;;;5093109;28;20204;-81
2021/04/13 07:40:02;;;;;;;18.80;9.73;;;6.50;99.90;;;;;;5093171;28;20339;-82
2021/04/13 07:42:32;;;;;;;18.93;8.27;;;6.50;99.90;;;;;;5092463;28;20592;-82
2021/04/13 07:45:22;;;;;;;21.47;8.03;;;6.50;99.90;;;;;;5093261;28;20200;-81
2021/04/13 07:48:04;;;;;;;13.47;6.20;;;6.70;99.90;;;;;;5089185;28;20197;-82
2021/04/13 07:50:39;;;;;;;13.13;6.67;;;6.90;99.90;;;;;;5093746;28;20317;-81
2021/04/13 07:53:16;;;;;;;15.63;6.77;;;7.00;99.90;;;;;;5092085;28;20203;-82
2021/04/13 07:55:53;;;;;;;13.23;6.53;;;7.10;99.90;;;;;;5092753;28;20196;-81
2021/04/13 07:58:36;;;;;;;21.33;7.63;;;7.20;99.90;;;;;;5092509;28;20195;-81
2021/04/13 08:01:07;;;;;;;14.70;6.27;;;7.50;99.90;;;;;;5092566;28;20201;-81
2021/04/13 08:03:36;;;;;;;16.33;6.67;;;7.50;99.90;;;;;;5092787;28;20251;-81
2021/04/13 08:06:05;;;;;;;4.33;1.60;;;7.70;99.90;;;;;;5091802;28;20199;-81
2021/04/13 08:08:34;;;;;;;15.70;3.40;;;7.40;99.90;;;;;;5092299;28;20191;-81
2021/04/13 08:11:09;;;;;;;5.07;1.30;;;7.50;99.90;;;;;;5092978;28;20285;-82
2021/04/13 08:13:37;;;;;;;7.80;2.20;;;7.30;99.90;;;;;;5092527;28;20194;-81
2021/04/13 08:16:05;;;;;;;8.83;2.03;;;7.30;99.90;;;;;;5092180;28;20227;-81
2021/04/13 08:18:36;;;;;;;8.63;2.07;;;7.40;99.90;;;;;;5094193;28;20204;-81
2021/04/13 08:21:20;;;;;;;8.60;2.87;;;7.30;99.90;;;;;;5078914;28;20246;-82
2021/04/13 08:23:47;;;;;;;8.37;2.50;;;7.50;99.90;;;;;;5095262;28;20682;-81
2021/04/13 08:26:34;;;;;;;6.43;2.63;;;7.70;99.90;;;;;;5095652;28;20215;-82
2021/04/13 08:29:10;;;;;;;6.37;2.70;;;7.90;99.90;;;;;;5084818;28;20299;-81
2021/04/13 08:34:44;;;;;;;7.40;2.60;;;7.70;99.90;;;;;;5095754;28;20261;-81
2021/04/13 08:37:22;;;;;;;8.53;3.50;;;7.40;99.90;;;;;;5095765;28;20211;-83
2021/04/13 08:40:09;;;;;;;8.07;2.40;;;7.60;99.90;;;;;;5096315;28;20203;-82
2021/04/13 08:42:45;;;;;;;12.43;1.83;;;9.10;99.90;;;;;;5096153;28;20221;-82
2021/04/13 08:45:19;;;;;;;5.60;1.50;;;9.90;99.90;;;;;;5095592;28;20287;-81
2021/04/13 08:47:49;;;;;;;7.00;2.00;;;10.10;99.90;;;;;;5083318;28;20222;-83
2021/04/13 08:50:40;;;;;;;7.00;1.50;;;9.70;99.90;;;;;;5092926;28;20226;-81
2021/04/13 08:53:09;;;;;;;8.93;1.83;;;11.00;99.90;;;;;;5092968;28;20205;-83
2021/04/13 08:55:45;;;;;;;4.87;1.60;;;13.30;99.90;;;;;;5095038;28;20202;-82
2021/04/13 08:58:37;;;;;;;10.07;2.63;;;15.30;99.90;;;;;;5093518;28;20214;-80
2021/04/13 09:01:28;;;;;;;9.73;2.10;;;15.80;99.90;;;;;;5095764;28;20208;-81
2021/04/13 09:03:55;;;;;;;8.20;2.47;;;16.80;99.90;;;;;;5094813;28;20227;-83
2021/04/13 09:06:30;;;;;;;4.87;2.10;;;19.10;99.90;;;;;;5094822;28;20226;-82
2021/04/13 09:09:05;;;;;;;5.57;2.53;;;19.40;99.90;;;;;;5095400;28;20210;-82
2021/04/13 09:11:46;;;;;;;7.80;3.00;;;18.80;99.90;;;;;;5095840;28;20538;-84
2021/04/13 09:14:25;;;;;;;6.67;2.67;;;19.50;99.90;;;;;;5094983;28;20238;-85
2021/04/13 09:16:58;;;;;;;5.67;2.13;;;21.10;99.90;;;;;;5094773;28;20206;-82
2021/04/13 09:19:35;;;;;;;8.50;2.47;;;19.40;99.90;;;;;;5095808;28;20206;-84
2021/04/13 09:22:15;;;;;;;8.63;2.27;;;17.40;99.90;;;;;;5094494;28;20214;-82
2021/04/13 09:24:43;;;;;;;8.07;2.57;;;15.90;99.90;;;;;;5095267;28;20592;-85
2021/04/13 09:27:37;;;;;;;8.83;2.83;;;14.00;99.90;;;;;;5095569;28;20244;-85
2021/04/13 09:30:28;;;;;;;7.97;2.20;;;12.60;99.90;;;;;;5092986;28;20601;-83
2021/04/13 09:33:12;;;;;;;7.90;2.70;;;11.80;99.90;;;;;;5095060;28;20234;-81
2021/04/13 09:36:13;;;;;;;7.53;2.30;;;11.90;99.90;;;;;;5082570;28;20202;-83
2021/04/13 09:39:01;;;;;;;7.70;2.20;;;14.20;99.90;;;;;;5064549;28;20195;-81
2021/04/13 09:41:48;;;;;;;5.43;2.20;;;16.80;99.90;;;;;;5085650;28;20290;-81
2021/04/13 09:44:31;;;;;;;5.40;2.37;;;18.20;99.90;;;;;;5090976;28;20220;-82
2021/04/13 09:47:06;;;;;;;9.23;2.90;;;19.80;99.90;;;;;;5091392;28;20201;-82
2021/04/13 09:49:54;;;;;;;6.03;2.60;;;20.90;99.90;;;;;;5094288;28;20207;-79
2021/04/13 09:53:00;;;;;;;7.53;2.40;;;22.00;99.90;;;;;;5085189;28;20295;-82
2021/04/13 09:55:41;;;;;;;7.73;2.70;;;22.20;99.90;;;;;;5090297;28;20290;-80
2021/04/13 09:58:47;;;;;;;5.53;2.50;;;22.70;99.90;;;;;;5092880;28;20620;-81
2021/04/13 10:01:30;;;;;;;6.43;2.40;;;23.30;99.90;;;;;;5051217;28;20253;-79
2021/04/13 10:04:19;;;;;;;8.70;3.67;;;23.90;99.90;;;;;;5050338;28;20286;-80
2021/04/13 10:07:03;;;;;;;4.53;2.70;;;22.80;99.20;;;;;;5082907;28;20609;-83
2021/04/13 10:09:37;;;;;;;6.20;2.90;;;22.50;99.50;;;;;;5089899;28;20203;-82
2021/04/13 10:12:40;;;;;;;9.67;2.90;;;18.90;99.90;;;;;;5088218;28;20626;-80
2021/04/13 10:15:39;;;;;;;9.07;2.80;;;16.20;99.90;;;;;;5087103;28;20667;-82
2021/04/13 10:18:38;;;;;;;4.50;2.30;;;14.70;99.90;;;;;;5093269;28;20214;-81
2021/04/13 10:21:19;;;;;;;7.40;2.70;;;13.80;99.90;;;;;;5092657;28;20244;-81
2021/04/13 10:24:20;;;;;;;11.00;2.33;;;13.30;99.90;;;;;;5087212;28;20194;-81
2021/04/13 10:27:13;;;;;;;4.23;2.50;;;12.80;99.90;;;;;;5088098;28;20542;-82
2021/04/13 10:30:10;;;;;;;7.87;2.30;;;12.40;99.90;;;;;;5091686;28;20206;-81
2021/04/13 10:33:06;;;;;;;9.80;1.90;;;12.10;99.90;;;;;;5088633;28;20301;-84
2021/04/13 10:36:13;;;;;;;4.30;2.40;;;12.50;99.90;;;;;;5090357;28;20324;-82
2021/04/13 10:39:14;;;;;;;8.33;2.10;;;14.10;99.90;;;;;;5088846;28;20206;-80
2021/04/13 10:42:32;;;;;;;4.07;1.90;;;14.60;99.90;;;;;;5090076;28;20678;-81
2021/04/13 10:45:37;;;;;;;3.87;1.50;;;15.80;99.90;;;;;;5092764;28;20187;-81
2021/04/13 10:48:41;;;;;;;4.63;1.80;;;18.00;99.90;;;;;;5062272;28;20262;-82
2021/04/13 10:51:47;;;;;;;4.63;1.70;;;19.20;99.90;;;;;;5092251;28;20718;-80
2021/04/13 10:54:51;;;;;;;4.50;1.63;;;21.90;99.90;;;;;;5090272;28;20206;-81
2021/04/13 10:58:03;;;;;;;5.13;1.83;;;22.90;99.30;;;;;;5090961;28;20203;-80
2021/04/13 11:00:36;;;;;;;3.67;1.63;;;22.10;97.80;;;;;;5092542;28;20294;-82
2021/04/13 11:03:51;;;;;;;3.47;1.70;;;19.10;98.90;;;;;;5093260;28;20696;-81
2021/04/13 11:06:56;;;;;;;3.53;1.63;;;17.10;99.30;;;;;;5091022;28;20218;-80
2021/04/13 11:09:40;;;;;;;3.23;1.43;;;14.80;99.90;;;;;;5080176;28;20285;-81
2021/04/13 11:12:54;;;;;;;4.50;1.57;;;14.80;99.90;;;;;;5091069;28;20235;-79
2021/04/13 11:15:53;;;;;;;4.17;1.60;;;16.50;99.90;;;;;;5045130;28;20304;-81
2021/04/13 11:19:03;;;;;;;4.00;1.50;;;17.30;99.60;;;;;;5092100;28;20649;-80
2021/04/13 11:22:20;;;;;;;7.90;1.80;;;18.80;99.20;;;;;;5066422;28;20281;-80
2021/04/13 11:25:11;;;;;;;5.97;1.70;;;19.10;99.90;;;;;;5041911;28;20693;-80
2021/04/13 11:28:07;;;;;;;3.10;1.70;;;16.30;99.90;;;;;;5084331;28;20214;-80
2021/04/13 11:31:05;;;;;;;5.50;1.80;;;14.90;99.90;;;;;;5047807;28;20230;-81
2021/04/13 11:33:58;;;;;;;3.57;1.50;;;13.50;99.90;;;;;;5092054;28;20226;-80
2021/04/13 11:36:41;;;;;;;3.63;1.60;;;12.30;99.90;;;;;;5071283;28;20675;-79
2021/04/13 11:39:22;;;;;;;7.43;1.40;;;12.20;99.90;;;;;;5089600;28;20198;-78
2021/04/13 11:42:07;;;;;;;3.57;1.57;;;12.40;99.90;;;;;;5091781;28;20260;-79
2021/04/13 11:44:41;;;;;;;5.30;1.37;;;12.50;99.90;;;;;;5090967;28;20206;-79
2021/04/13 11:47:19;;;;;;;8.07;2.07;;;13.90;99.90;;;;;;5091362;28;20199;-79
2021/04/13 11:49:54;;;;;;;3.00;1.30;;;15.70;99.90;;;;;;5090308;28;20282;-79
2021/04/13 11:52:31;;;;;;;2.70;1.40;;;16.30;99.90;;;;;;5090625;28;20218;-79
2021/04/13 11:54:57;;;;;;;4.27;1.37;;;16.90;99.90;;;;;;5088155;28;20183;-79
2021/04/13 11:57:24;;;;;;;4.07;1.30;;;16.70;99.90;;;;;;5083638;28;20187;-80
2021/04/13 12:00:27;;;;;;;5.93;1.50;;;16.30;99.90;;;;;;5089586;28;20289;-79
2021/04/13 12:03:09;;;;;;;3.33;1.60;;;16.90;99.90;;;;;;5088400;28;20297;-83
2021/04/13 12:05:45;;;;;;;6.73;1.33;;;15.20;99.90;;;;;;5088027;28;20195;-80
2021/04/13 12:08:38;;;;;;;2.83;1.37;;;15.00;99.90;;;;;;5090413;28;20192;-81
2021/04/13 12:11:07;;;;;;;116.20;63.13;;;14.70;99.90;;;;;;5073194;28;20865;-81
2021/04/13 12:13:48;;;;;;;6.13;2.07;;;15.70;99.90;;;;;;5090612;28;20272;-81
2021/04/13 12:16:17;;;;;;;3.53;1.37;;;16.40;99.70;;;;;;5086697;28;20305;-82
2021/04/13 12:19:06;;;;;;;3.83;1.10;;;16.60;99.40;;;;;;5089987;28;20244;-80
2021/04/13 12:21:55;;;;;;;4.33;1.30;;;15.60;99.80;;;;;;5089863;28;20285;-80
2021/04/13 12:24:52;;;;;;;3.53;1.27;;;15.90;99.60;;;;;;5090024;28;20237;-81
2021/04/13 12:27:45;;;;;;;1.50;0.90;;;16.20;99.90;;;;;;5091611;28;20724;-81
2021/04/13 12:30:53;;;;;;;5.10;1.40;;;17.20;98.20;;;;;;5088295;28;20207;-81
2021/04/13 12:34:08;;;;;;;2.70;1.63;;;17.50;99.70;;;;;;5081585;28;20238;-82
2021/04/13 12:36:57;;;;;;;4.40;1.27;;;16.90;99.90;;;;;;5028205;28;20670;-80
2021/04/13 12:39:54;;;;;;;4.67;1.20;;;17.50;99.10;;;;;;5025498;28;20201;-80
2021/04/13 12:42:51;;;;;;;4.10;1.50;;;17.90;99.00;;;;;;5074567;28;20198;-80
2021/04/13 12:45:43;;;;;;;3.73;1.30;;;18.40;99.60;;;;;;5087280;28;20234;-80
2021/04/13 12:48:22;;;;;;;2.50;1.10;;;18.60;98.10;;;;;;5088664;28;20249;-80
2021/04/13 12:50:55;;;;;;;2.80;1.17;;;18.30;97.70;;;;;;5087875;28;20691;-81
2021/04/13 12:53:24;;;;;;;3.80;1.50;;;18.00;98.20;;;;;;5087665;28;20612;-81
2021/04/13 12:56:02;;;;;;;3.53;1.20;;;16.80;98.30;;;;;;5090210;28;20716;-82
2021/04/13 12:58:31;;;;;;;4.17;1.77;;;16.70;98.50;;;;;;5087392;28;20672;-82
2021/04/13 13:00:58;;;;;;;3.13;1.20;;;16.20;97.80;;;;;;5087608;28;20201;-80
2021/04/13 13:03:33;;;;;;;2.43;0.97;;;15.00;96.60;;;;;;5086654;28;20223;-82
2021/04/13 13:06:12;;;;;;;2.73;1.40;;;15.20;98.70;;;;;;5087646;28;20202;-82
2021/04/13 13:08:39;;;;;;;3.90;1.20;;;15.70;98.20;;;;;;5089486;28;20686;-82
2021/04/13 13:11:10;;;;;;;2.83;1.10;;;15.60;98.40;;;;;;5092623;28;20286;-81
2021/04/13 13:13:39;;;;;;;2.33;1.00;;;15.50;99.20;;;;;;5090974;28;20281;-80
2021/04/13 13:16:12;;;;;;;4.13;1.10;;;15.80;99.30;;;;;;5093090;28;20191;-82
2021/04/13 13:18:45;;;;;;;4.97;1.23;;;15.50;98.40;;;;;;5094336;28;20523;-81
2021/04/13 13:21:14;;;;;;;3.00;1.23;;;14.60;99.80;;;;;;5094512;28;20279;-81
2021/04/13 13:23:45;;;;;;;7.37;2.10;;;14.80;99.90;;;;;;5092633;28;20574;-81
2021/04/13 13:26:17;;;;;;;7.07;1.67;;;14.50;99.80;;;;;;5094077;28;20211;-81
2021/04/13 13:28:44;;;;;;;2.60;1.43;;;13.90;99.40;;;;;;5095217;28;20279;-81
2021/04/13 13:31:14;;;;;;;5.13;1.30;;;14.00;99.50;;;;;;5094691;28;20658;-82
2021/04/13 13:33:42;;;;;;;2.20;1.17;;;14.10;99.90;;;;;;5081471;28;20257;-80
2021/04/13 13:36:10;;;;;;;3.23;1.60;;;14.60;99.90;;;;;;5086334;28;20203;-81